createdAt,value
2019-01-20T00:00:30.930Z,19.32
2019-01-20T00:01:09.040Z,20.72
2019-01-20T00:01:45.118Z,18.67
2019-01-20T00:02:20.894Z,18.02
2019-01-20T00:02:56.599Z,19.15
2019-01-20T00:03:32.644Z,20.27
2019-01-20T00:04:08.630Z,22.10
2019-01-20T00:04:44.742Z,18.15
2019-01-20T00:05:20.795Z,17.20
2019-01-20T00:05:56.740Z,22.93
2019-01-20T00:06:32.442Z,17.85
2019-01-20T00:07:08.214Z,19.60
2019-01-20T00:07:44.236Z,20.45
2019-01-20T00:08:19.974Z,18.92
2019-01-20T00:08:55.961Z,23.00
2019-01-20T00:09:32.039Z,22.42
2019-01-20T00:10:08.338Z,19.70
2019-01-20T00:10:44.074Z,19.02
2019-01-20T00:11:19.848Z,20.40
2019-01-20T00:11:55.850Z,21.27
2019-01-20T00:12:31.587Z,23.70
2019-01-20T00:13:07.322Z,18.42
2019-01-20T00:13:43.044Z,18.87
2019-01-20T00:14:18.992Z,23.18
2019-01-20T00:14:54.759Z,20.82
2019-01-20T00:15:30.503Z,19.37
2019-01-20T00:16:06.414Z,21.23
2019-01-20T00:16:42.179Z,18.37
2019-01-20T00:17:17.967Z,21.87
2019-01-20T00:17:53.761Z,22.30
2019-01-20T00:18:29.474Z,21.40
2019-01-20T00:19:05.478Z,20.30
2019-01-20T00:19:41.548Z,20.62
2019-01-20T00:20:17.724Z,21.48
2019-01-20T00:20:54.033Z,22.70
2019-01-20T00:21:29.767Z,22.02
2019-01-20T00:22:06.303Z,18.80
2019-01-20T00:22:42.022Z,20.08
2019-01-20T00:23:17.778Z,22.77
2019-01-20T00:23:53.544Z,20.97
2019-01-20T00:24:29.630Z,20.37
2019-01-20T00:25:06.282Z,18.82
2019-01-20T00:25:42.223Z,19.37
2019-01-20T00:26:18.275Z,18.32
2019-01-20T00:26:54.000Z,19.95
2019-01-20T00:27:29.714Z,20.95
2019-01-20T00:28:05.552Z,17.87
2019-01-20T00:28:41.267Z,22.35
2019-01-20T00:29:17.028Z,20.45
2019-01-20T00:29:53.055Z,20.70
2019-01-20T00:30:28.836Z,21.42
2019-01-20T00:31:05.228Z,19.52
2019-01-20T00:31:41.226Z,20.57
2019-01-20T00:32:16.978Z,21.95
2019-01-20T00:32:52.711Z,21.62
2019-01-20T00:33:28.729Z,22.52
2019-01-20T00:34:04.672Z,20.62
2019-01-20T00:34:40.689Z,24.02
2019-01-20T00:35:16.432Z,20.43
2019-01-20T00:35:52.172Z,21.30
2019-01-20T00:36:27.919Z,21.55
2019-01-20T00:37:04.182Z,23.50
2019-01-20T00:37:40.057Z,21.65
2019-01-20T00:38:15.926Z,22.73
2019-01-20T00:38:51.994Z,22.45
2019-01-20T00:39:27.754Z,20.48
2019-01-20T00:40:04.699Z,22.48
2019-01-20T00:40:40.419Z,22.22
2019-01-20T00:41:23.831Z,20.40
2019-01-20T00:41:53.913Z,21.20
2019-01-20T00:42:29.657Z,21.35
2019-01-20T00:43:05.391Z,22.48
2019-01-20T00:43:41.160Z,18.87
2019-01-20T00:44:17.471Z,23.95
2019-01-20T00:44:53.291Z,20.55
2019-01-20T00:45:29.343Z,24.85
2019-01-20T00:46:05.177Z,22.05
2019-01-20T00:46:40.925Z,23.22
2019-01-20T00:47:16.835Z,21.75
2019-01-20T00:47:52.817Z,20.50
2019-01-20T00:48:28.536Z,21.02
2019-01-20T00:49:04.528Z,24.00
2019-01-20T00:49:40.539Z,23.07
2019-01-20T00:50:16.693Z,22.20
2019-01-20T00:50:52.416Z,22.65
2019-01-20T00:51:28.517Z,23.38
2019-01-20T00:52:04.641Z,24.85
2019-01-20T00:52:40.403Z,24.35
2019-01-20T00:53:16.154Z,22.45
2019-01-20T00:53:52.135Z,25.32
2019-01-20T00:54:28.133Z,22.40
2019-01-20T00:55:04.136Z,22.35
2019-01-20T00:55:39.868Z,24.52
2019-01-20T00:56:15.611Z,22.60
2019-01-20T00:56:51.355Z,22.37
2019-01-20T00:57:27.112Z,22.95
2019-01-20T00:58:03.080Z,23.95
2019-01-20T00:58:38.839Z,25.65
2019-01-20T00:59:14.579Z,22.73
2019-01-20T00:59:50.484Z,23.10
2019-01-20T01:00:28.882Z,22.30
2019-01-20T01:01:04.627Z,25.23
2019-01-20T01:01:40.376Z,22.25
2019-01-20T01:02:16.396Z,23.25
2019-01-20T01:02:52.184Z,25.72
2019-01-20T01:03:27.970Z,27.20
2019-01-20T01:04:04.231Z,21.87
2019-01-20T01:04:40.010Z,24.37
2019-01-20T01:05:16.359Z,24.57
2019-01-20T01:05:52.099Z,24.52
2019-01-20T01:06:27.833Z,23.18
2019-01-20T01:07:04.059Z,22.85
2019-01-20T01:07:40.204Z,24.52
2019-01-20T01:08:16.465Z,24.20
2019-01-20T01:08:52.785Z,27.00
2019-01-20T01:09:28.785Z,28.00
2019-01-20T01:10:06.998Z,25.20
2019-01-20T01:10:43.387Z,24.45
2019-01-20T01:11:19.139Z,21.95
2019-01-20T01:11:54.935Z,25.15
2019-01-20T01:12:31.324Z,25.65
2019-01-20T01:13:07.070Z,24.60
2019-01-20T01:13:43.396Z,23.50
2019-01-20T01:14:19.215Z,22.90
2019-01-20T01:14:54.993Z,25.50
2019-01-20T01:15:30.900Z,23.02
2019-01-20T01:16:07.645Z,25.48
2019-01-20T01:16:43.937Z,24.70
2019-01-20T01:17:20.113Z,24.90
2019-01-20T01:17:55.839Z,23.52
2019-01-20T01:18:32.063Z,27.05
2019-01-20T01:19:07.910Z,28.25
2019-01-20T01:19:43.673Z,23.40
2019-01-20T01:20:20.085Z,24.40
2019-01-20T01:20:55.841Z,23.45
2019-01-20T01:21:32.219Z,25.48
2019-01-20T01:22:07.979Z,23.45
2019-01-20T01:22:43.912Z,26.17
2019-01-20T01:23:19.893Z,23.07
2019-01-20T01:23:55.966Z,23.70
2019-01-20T01:24:32.024Z,23.90
2019-01-20T01:25:09.484Z,22.60
2019-01-20T01:25:45.227Z,24.52
2019-01-20T01:26:21.006Z,24.47
2019-01-20T01:26:56.751Z,22.95
2019-01-20T01:27:32.499Z,21.02
2019-01-20T01:28:08.796Z,23.90
2019-01-20T01:28:44.650Z,24.95
2019-01-20T01:29:20.682Z,24.35
2019-01-20T01:29:57.216Z,23.15
2019-01-20T01:30:32.994Z,22.10
2019-01-20T01:31:08.823Z,22.30
2019-01-20T01:31:44.798Z,23.27
2019-01-20T01:32:21.674Z,24.75
2019-01-20T01:32:57.658Z,23.32
2019-01-20T01:33:33.401Z,24.12
2019-01-20T01:34:09.153Z,24.10
2019-01-20T01:34:44.990Z,23.50
2019-01-20T01:35:20.776Z,23.45
2019-01-20T01:35:56.769Z,26.23
2019-01-20T01:36:32.556Z,24.15
2019-01-20T01:37:08.707Z,25.17
2019-01-20T01:37:44.970Z,24.00
2019-01-20T01:38:20.989Z,24.67
2019-01-20T01:38:56.749Z,22.82
2019-01-20T01:39:32.481Z,27.58
2019-01-20T01:40:09.477Z,26.60
2019-01-20T01:40:45.322Z,27.07
2019-01-20T01:41:21.132Z,26.20
2019-01-20T01:41:56.872Z,26.87
2019-01-20T01:42:33.211Z,25.00
2019-01-20T01:43:09.463Z,26.73
2019-01-20T01:43:45.245Z,25.48
2019-01-20T01:44:21.006Z,26.48
2019-01-20T01:44:56.763Z,26.40
2019-01-20T01:45:32.791Z,24.05
2019-01-20T01:46:08.536Z,26.20
2019-01-20T01:46:44.539Z,28.32
2019-01-20T01:47:20.317Z,25.88
2019-01-20T01:47:56.030Z,25.60
2019-01-20T01:48:32.084Z,25.80
2019-01-20T01:49:07.845Z,26.07
2019-01-20T01:49:43.725Z,24.85
2019-01-20T01:50:20.244Z,27.45
2019-01-20T01:50:56.094Z,30.00
2019-01-20T01:51:32.620Z,24.30
2019-01-20T01:52:08.356Z,27.30
2019-01-20T01:52:44.125Z,27.95
2019-01-20T01:53:19.869Z,25.88
2019-01-20T01:53:55.858Z,27.25
2019-01-20T01:54:31.587Z,28.12
2019-01-20T01:55:08.593Z,26.07
2019-01-20T01:55:44.421Z,24.90
2019-01-20T01:56:20.640Z,28.35
2019-01-20T01:56:56.362Z,26.80
2019-01-20T01:57:32.077Z,24.92
2019-01-20T01:58:07.815Z,27.67
2019-01-20T01:58:43.577Z,27.85
2019-01-20T01:59:19.838Z,27.27
2019-01-20T01:59:55.563Z,25.72
2019-01-20T02:00:31.304Z,28.80
2019-01-20T02:01:07.185Z,25.97
2019-01-20T02:01:43.190Z,30.05
2019-01-20T02:02:19.295Z,26.17
2019-01-20T02:02:55.061Z,30.77
2019-01-20T02:03:30.788Z,27.65
2019-01-20T02:04:06.612Z,25.08
2019-01-20T02:04:42.975Z,29.12
2019-01-20T02:05:19.095Z,26.48
2019-01-20T02:05:54.840Z,28.85
2019-01-20T02:06:30.583Z,27.87
2019-01-20T02:07:06.944Z,27.22
2019-01-20T02:07:42.869Z,27.37
2019-01-20T02:08:18.925Z,26.30
2019-01-20T02:08:54.650Z,26.85
2019-01-20T02:09:30.424Z,32.03
2019-01-20T02:10:08.481Z,30.30
2019-01-20T02:10:44.271Z,29.95
2019-01-20T02:11:20.009Z,28.07
2019-01-20T02:11:55.745Z,31.05
2019-01-20T02:12:31.913Z,28.35
2019-01-20T02:13:08.641Z,31.50
2019-01-20T02:13:44.674Z,30.25
2019-01-20T02:14:20.447Z,28.45
2019-01-20T02:14:56.221Z,30.32
2019-01-20T02:15:31.958Z,28.83
2019-01-20T02:16:07.702Z,28.25
2019-01-20T02:16:43.430Z,26.93
2019-01-20T02:17:19.181Z,32.08
2019-01-20T02:17:55.203Z,30.57
2019-01-20T02:18:30.964Z,28.92
2019-01-20T02:19:07.286Z,29.20
2019-01-20T02:19:43.281Z,28.92
2019-01-20T02:20:23.886Z,29.82
2019-01-20T02:21:00.184Z,29.23
2019-01-20T02:21:36.373Z,28.00
2019-01-20T02:22:12.355Z,31.77
2019-01-20T02:22:48.500Z,30.65
2019-01-20T02:23:24.970Z,32.05
2019-01-20T02:24:00.699Z,30.15
2019-01-20T02:24:36.454Z,29.15
2019-01-20T02:25:12.215Z,31.00
2019-01-20T02:25:48.006Z,28.07
2019-01-20T02:26:24.000Z,31.87
2019-01-20T02:26:59.739Z,32.20
2019-01-20T02:27:35.481Z,29.98
2019-01-20T02:28:11.235Z,34.55
2019-01-20T02:28:47.005Z,30.52
2019-01-20T02:29:22.989Z,33.23
2019-01-20T02:29:58.735Z,29.90
2019-01-20T02:30:34.796Z,33.05
2019-01-20T02:31:10.574Z,28.65
2019-01-20T02:31:46.292Z,35.25
2019-01-20T02:32:22.086Z,32.30
2019-01-20T02:32:58.091Z,32.85
2019-01-20T02:33:33.831Z,31.55
2019-01-20T02:34:09.921Z,32.33
2019-01-20T02:34:45.711Z,30.90
2019-01-20T02:35:21.552Z,34.70
2019-01-20T02:35:57.293Z,33.90
2019-01-20T02:36:33.336Z,31.50
2019-01-20T02:37:09.054Z,32.93
2019-01-20T02:37:44.794Z,30.02
2019-01-20T02:38:20.941Z,33.45
2019-01-20T02:38:56.704Z,35.13
2019-01-20T02:39:32.732Z,31.15
2019-01-20T02:40:09.525Z,32.60
2019-01-20T02:40:45.717Z,29.92
2019-01-20T02:41:21.473Z,29.12
2019-01-20T02:41:57.753Z,29.67
2019-01-20T02:42:33.509Z,33.67
2019-01-20T02:43:09.234Z,30.72
2019-01-20T02:43:45.083Z,32.23
2019-01-20T02:44:20.870Z,31.42
2019-01-20T02:44:56.615Z,34.10
2019-01-20T02:45:32.975Z,34.15
2019-01-20T02:46:09.395Z,35.33
2019-01-20T02:46:45.423Z,31.90
2019-01-20T02:47:21.209Z,36.50
2019-01-20T02:47:56.944Z,34.33
2019-01-20T02:48:32.683Z,30.97
2019-01-20T02:49:08.462Z,33.08
2019-01-20T02:49:44.186Z,31.55
2019-01-20T02:50:20.284Z,33.90
2019-01-20T02:50:56.384Z,30.77
2019-01-20T02:51:32.144Z,32.88
2019-01-20T02:52:07.882Z,32.20
2019-01-20T02:52:43.642Z,33.85
2019-01-20T02:53:19.386Z,33.55
2019-01-20T02:53:55.120Z,32.00
2019-01-20T02:54:31.140Z,31.23
2019-01-20T02:55:06.949Z,34.20
2019-01-20T02:55:42.979Z,32.73
2019-01-20T02:56:18.712Z,32.28
2019-01-20T02:56:54.737Z,31.55
2019-01-20T02:57:30.469Z,35.30
2019-01-20T02:58:06.299Z,33.45
2019-01-20T02:58:42.034Z,31.85
2019-01-20T02:59:17.810Z,31.48
2019-01-20T02:59:53.552Z,32.13
2019-01-20T03:00:29.287Z,33.40
2019-01-20T03:01:05.638Z,32.38
2019-01-20T03:01:41.371Z,32.98
2019-01-20T03:02:17.268Z,31.15
2019-01-20T03:02:53.072Z,32.85
2019-01-20T03:03:28.802Z,33.00
2019-01-20T03:04:04.848Z,32.85
2019-01-20T03:04:40.889Z,33.78
2019-01-20T03:05:17.107Z,31.97
2019-01-20T03:05:53.153Z,30.97
2019-01-20T03:06:28.904Z,31.27
2019-01-20T03:07:04.925Z,33.98
2019-01-20T03:07:40.661Z,32.45
2019-01-20T03:08:16.433Z,30.80
2019-01-20T03:08:52.208Z,32.30
2019-01-20T03:09:28.385Z,32.45
2019-01-20T03:10:04.680Z,34.00
2019-01-20T03:10:40.401Z,32.42
2019-01-20T03:11:16.167Z,31.30
2019-01-20T03:11:52.249Z,35.25
2019-01-20T03:12:27.991Z,32.23
2019-01-20T03:13:03.877Z,33.58
2019-01-20T03:13:39.690Z,35.50
2019-01-20T03:14:15.728Z,31.25
2019-01-20T03:14:51.595Z,32.17
2019-01-20T03:15:29.323Z,35.75
2019-01-20T03:16:05.382Z,34.18
2019-01-20T03:16:41.384Z,33.75
2019-01-20T03:17:17.287Z,32.55
2019-01-20T03:17:53.033Z,31.57
2019-01-20T03:18:28.844Z,30.80
2019-01-20T03:19:05.168Z,34.05
2019-01-20T03:19:40.896Z,33.78
2019-01-20T03:20:19.432Z,30.82
2019-01-20T03:20:55.671Z,31.23
2019-01-20T03:21:31.431Z,31.85
2019-01-20T03:22:07.324Z,35.83
2019-01-20T03:22:43.338Z,32.83
2019-01-20T03:23:19.476Z,33.10
2019-01-20T03:23:55.244Z,30.15
2019-01-20T03:24:30.996Z,32.80
2019-01-20T03:25:08.664Z,35.15
2019-01-20T03:25:44.444Z,33.18
2019-01-20T03:26:20.495Z,32.50
2019-01-20T03:26:56.359Z,31.87
2019-01-20T03:27:32.374Z,34.70
2019-01-20T03:28:08.154Z,30.77
2019-01-20T03:28:44.001Z,32.53
2019-01-20T03:29:19.913Z,31.57
2019-01-20T03:29:55.690Z,33.58
2019-01-20T03:30:31.441Z,32.42
2019-01-20T03:31:07.492Z,33.38
2019-01-20T03:31:43.229Z,31.62
2019-01-20T03:32:19.268Z,32.03
2019-01-20T03:32:55.104Z,33.80
2019-01-20T03:33:30.859Z,34.78
2019-01-20T03:34:06.620Z,31.20
2019-01-20T03:34:42.370Z,32.75
2019-01-20T03:35:20.872Z,32.70
2019-01-20T03:35:56.655Z,32.20
2019-01-20T03:36:32.647Z,34.50
2019-01-20T03:37:08.403Z,33.15
2019-01-20T03:37:44.239Z,32.88
2019-01-20T03:38:20.285Z,33.00
2019-01-20T03:38:56.050Z,32.05
2019-01-20T03:39:32.110Z,32.45
2019-01-20T03:40:09.536Z,35.23
2019-01-20T03:40:45.592Z,32.23
2019-01-20T03:41:21.401Z,32.78
2019-01-20T03:41:57.408Z,33.65
2019-01-20T03:42:33.611Z,31.97
2019-01-20T03:43:09.353Z,33.70
2019-01-20T03:43:45.100Z,32.70
2019-01-20T03:44:21.194Z,33.92
2019-01-20T03:44:57.281Z,32.33
2019-01-20T03:45:33.050Z,34.45
2019-01-20T03:46:08.896Z,32.08
2019-01-20T03:46:44.626Z,37.08
2019-01-20T03:47:20.743Z,37.53
2019-01-20T03:47:56.769Z,34.30
2019-01-20T03:48:32.511Z,33.70
2019-01-20T03:49:08.542Z,32.67
2019-01-20T03:49:44.369Z,33.45
2019-01-20T03:50:20.124Z,33.78
2019-01-20T03:50:56.008Z,34.55
2019-01-20T03:51:31.749Z,33.05
2019-01-20T03:52:07.571Z,33.30
2019-01-20T03:52:43.652Z,36.48
2019-01-20T03:53:19.677Z,34.13
2019-01-20T03:53:55.750Z,33.25
2019-01-20T03:54:31.775Z,30.85
2019-01-20T03:55:08.596Z,33.20
2019-01-20T03:55:44.754Z,33.05
2019-01-20T03:56:20.841Z,33.30
2019-01-20T03:56:56.660Z,32.65
2019-01-20T03:57:32.631Z,33.28
2019-01-20T03:58:08.408Z,29.60
2019-01-20T03:58:44.366Z,30.92
2019-01-20T03:59:20.282Z,32.85
2019-01-20T03:59:56.017Z,32.58
2019-01-20T04:00:31.741Z,33.73
2019-01-20T04:01:07.481Z,34.53
2019-01-20T04:01:43.537Z,33.45
2019-01-20T04:02:21.104Z,34.10
2019-01-20T04:03:00.780Z,31.30
2019-01-20T04:03:36.805Z,34.73
2019-01-20T04:04:12.828Z,32.38
2019-01-20T04:04:48.938Z,33.85
2019-01-20T04:05:24.710Z,32.33
2019-01-20T04:06:00.463Z,33.53
2019-01-20T04:06:36.755Z,32.10
2019-01-20T04:07:12.517Z,33.05
2019-01-20T04:07:48.312Z,29.98
2019-01-20T04:08:24.096Z,30.17
2019-01-20T04:08:59.833Z,31.68
2019-01-20T04:09:35.857Z,33.40
2019-01-20T04:10:13.125Z,32.42
2019-01-20T04:10:48.869Z,31.68
2019-01-20T04:11:24.658Z,32.63
2019-01-20T04:12:00.384Z,33.08
2019-01-20T04:12:36.169Z,35.23
2019-01-20T04:13:11.914Z,33.65
2019-01-20T04:13:47.739Z,32.67
2019-01-20T04:14:23.498Z,31.48
2019-01-20T04:14:59.336Z,29.92
2019-01-20T04:15:35.144Z,34.85
2019-01-20T04:16:10.889Z,33.60
2019-01-20T04:16:46.879Z,33.33
2019-01-20T04:17:22.678Z,29.50
2019-01-20T04:17:58.715Z,37.50
2019-01-20T04:18:34.439Z,33.63
2019-01-20T04:19:10.179Z,34.27
2019-01-20T04:19:45.931Z,35.03
2019-01-20T04:20:21.700Z,34.25
2019-01-20T04:20:57.462Z,31.68
2019-01-20T04:21:33.202Z,34.40
2019-01-20T04:22:09.210Z,34.80
2019-01-20T04:22:45.025Z,35.00
2019-01-20T04:23:20.871Z,33.88
2019-01-20T04:23:56.609Z,33.25
2019-01-20T04:24:32.333Z,37.53
2019-01-20T04:25:10.137Z,33.05
2019-01-20T04:25:47.633Z,32.80
2019-01-20T04:26:23.405Z,34.15
2019-01-20T04:26:59.134Z,35.13
2019-01-20T04:27:35.172Z,33.75
2019-01-20T04:28:11.197Z,33.78
2019-01-20T04:28:47.226Z,34.05
2019-01-20T04:29:23.001Z,33.20
2019-01-20T04:29:59.109Z,36.00
2019-01-20T04:30:35.127Z,33.10
2019-01-20T04:31:10.972Z,34.70
2019-01-20T04:31:46.763Z,31.37
2019-01-20T04:32:22.881Z,33.83
2019-01-20T04:32:58.998Z,35.10
2019-01-20T04:33:35.069Z,32.15
2019-01-20T04:34:10.882Z,34.90
2019-01-20T04:34:46.635Z,33.92
2019-01-20T04:35:22.397Z,34.23
2019-01-20T04:35:58.143Z,33.13
2019-01-20T04:36:33.890Z,36.75
2019-01-20T04:37:09.665Z,38.05
2019-01-20T04:37:45.408Z,35.98
2019-01-20T04:38:21.167Z,34.83
2019-01-20T04:38:56.983Z,36.30
2019-01-20T04:39:33.111Z,39.18
2019-01-20T04:40:11.662Z,36.45
2019-01-20T04:40:48.025Z,32.33
2019-01-20T04:41:24.079Z,38.60
2019-01-20T04:41:59.804Z,35.15
2019-01-20T04:42:35.538Z,34.83
2019-01-20T04:43:11.331Z,37.25
2019-01-20T04:43:47.155Z,34.35
2019-01-20T04:44:22.920Z,34.70
2019-01-20T04:44:58.645Z,39.40
2019-01-20T04:45:34.382Z,34.23
2019-01-20T04:46:10.134Z,40.20
2019-01-20T04:46:46.156Z,37.88
2019-01-20T04:47:22.062Z,37.78
2019-01-20T04:47:57.823Z,38.35
2019-01-20T04:48:33.578Z,37.00
2019-01-20T04:49:09.456Z,38.98
2019-01-20T04:49:45.184Z,37.13
2019-01-20T04:50:22.887Z,36.25
2019-01-20T04:50:58.924Z,34.78
2019-01-20T04:51:34.919Z,34.78
2019-01-20T04:52:10.647Z,36.33
2019-01-20T04:52:46.401Z,37.50
2019-01-20T04:53:22.442Z,38.40
2019-01-20T04:53:58.374Z,36.88
2019-01-20T04:54:34.112Z,38.33
2019-01-20T04:55:11.300Z,36.15
2019-01-20T04:55:47.045Z,39.40
2019-01-20T04:56:23.409Z,37.75
2019-01-20T04:56:59.394Z,37.50
2019-01-20T04:57:35.218Z,35.88
2019-01-20T04:58:11.175Z,40.12
2019-01-20T04:58:47.183Z,35.45
2019-01-20T04:59:23.001Z,36.25
2019-01-20T04:59:58.730Z,39.05
2019-01-20T05:00:34.711Z,35.20
2019-01-20T05:01:10.442Z,38.38
2019-01-20T05:01:46.429Z,36.77
2019-01-20T05:02:22.293Z,36.65
2019-01-20T05:02:58.205Z,35.70
2019-01-20T05:03:34.117Z,38.23
2019-01-20T05:04:09.840Z,34.78
2019-01-20T05:04:47.168Z,36.25
2019-01-20T05:05:23.394Z,35.78
2019-01-20T05:05:59.464Z,38.02
2019-01-20T05:06:35.227Z,38.00
2019-01-20T05:07:10.946Z,36.53
2019-01-20T05:07:46.696Z,39.25
2019-01-20T05:08:22.539Z,35.35
2019-01-20T05:08:58.279Z,37.80
2019-01-20T05:09:34.342Z,37.28
2019-01-20T05:10:11.766Z,35.52
2019-01-20T05:10:47.501Z,39.95
2019-01-20T05:11:23.277Z,34.70
2019-01-20T05:11:59.009Z,35.33
2019-01-20T05:12:37.681Z,37.15
2019-01-20T05:13:12.449Z,37.15
2019-01-20T05:13:48.202Z,36.40
2019-01-20T05:14:23.998Z,33.85
2019-01-20T05:14:59.730Z,36.75
2019-01-20T05:15:35.755Z,36.45
2019-01-20T05:16:11.775Z,36.93
2019-01-20T05:16:47.521Z,37.67
2019-01-20T05:17:23.417Z,34.90
2019-01-20T05:17:59.536Z,33.70
2019-01-20T05:18:35.526Z,34.48
2019-01-20T05:19:11.278Z,35.38
2019-01-20T05:19:47.077Z,34.98
2019-01-20T05:20:23.149Z,38.92
2019-01-20T05:20:58.878Z,32.78
2019-01-20T05:21:34.754Z,36.35
2019-01-20T05:22:10.834Z,33.58
2019-01-20T05:22:46.814Z,34.53
2019-01-20T05:23:22.613Z,35.58
2019-01-20T05:23:58.642Z,37.03
2019-01-20T05:24:34.368Z,34.50
2019-01-20T05:25:10.339Z,32.98
2019-01-20T05:25:46.087Z,36.28
2019-01-20T05:26:22.208Z,34.20
2019-01-20T05:26:58.000Z,34.73
2019-01-20T05:27:33.789Z,36.05
2019-01-20T05:28:09.879Z,33.67
2019-01-20T05:28:45.647Z,31.73
2019-01-20T05:29:21.434Z,34.43
2019-01-20T05:29:57.179Z,32.60
2019-01-20T05:30:32.939Z,37.63
2019-01-20T05:31:08.681Z,34.18
2019-01-20T05:31:44.433Z,32.83
2019-01-20T05:32:20.244Z,33.18
2019-01-20T05:32:56.022Z,34.40
2019-01-20T05:33:31.778Z,33.65
2019-01-20T05:34:07.774Z,33.83
2019-01-20T05:34:44.142Z,36.58
2019-01-20T05:35:20.169Z,33.83
2019-01-20T05:35:55.911Z,32.05
2019-01-20T05:36:32.205Z,34.75
2019-01-20T05:37:08.045Z,36.80
2019-01-20T05:37:44.097Z,34.85
2019-01-20T05:38:19.933Z,32.20
2019-01-20T05:38:55.672Z,33.65
2019-01-20T05:39:31.666Z,35.28
2019-01-20T05:40:08.687Z,32.65
2019-01-20T05:40:44.425Z,30.60
2019-01-20T05:41:20.477Z,35.13
2019-01-20T05:41:56.526Z,35.78
2019-01-20T05:42:32.543Z,31.55
2019-01-20T05:43:08.413Z,33.53
2019-01-20T05:43:44.165Z,33.42
2019-01-20T05:44:20.234Z,36.03
2019-01-20T05:44:55.968Z,34.08
2019-01-20T05:45:32.038Z,32.60
2019-01-20T05:46:07.772Z,31.77
2019-01-20T05:46:43.508Z,30.80
2019-01-20T05:47:19.297Z,35.98
2019-01-20T05:47:55.224Z,33.73
2019-01-20T05:48:32.831Z,31.60
2019-01-20T05:49:08.631Z,31.90
2019-01-20T05:49:44.391Z,33.13
2019-01-20T05:50:20.329Z,31.37
2019-01-20T05:50:56.048Z,33.53
2019-01-20T05:51:31.842Z,34.85
2019-01-20T05:52:08.205Z,33.98
2019-01-20T05:52:43.966Z,32.28
2019-01-20T05:53:19.720Z,32.95
2019-01-20T05:53:55.475Z,31.25
2019-01-20T05:54:31.482Z,32.35
2019-01-20T05:55:07.505Z,32.78
2019-01-20T05:55:43.259Z,32.15
2019-01-20T05:56:19.086Z,30.90
2019-01-20T05:56:54.858Z,33.83
2019-01-20T05:57:30.675Z,33.53
2019-01-20T05:58:06.434Z,32.78
2019-01-20T05:58:42.285Z,35.30
2019-01-20T05:59:18.346Z,33.48
2019-01-20T05:59:54.240Z,30.40
2019-01-20T06:00:31.591Z,32.50
2019-01-20T06:01:07.357Z,30.37
2019-01-20T06:01:43.419Z,32.67
2019-01-20T06:02:19.226Z,33.35
2019-01-20T06:02:55.261Z,30.95
2019-01-20T06:03:31.024Z,33.05
2019-01-20T06:04:06.819Z,29.98
2019-01-20T06:04:42.549Z,32.40
2019-01-20T06:05:18.577Z,34.73
2019-01-20T06:05:54.367Z,34.63
2019-01-20T06:06:30.412Z,32.17
2019-01-20T06:07:06.497Z,28.57
2019-01-20T06:07:42.519Z,30.20
2019-01-20T06:08:18.509Z,30.23
2019-01-20T06:08:54.291Z,31.62
2019-01-20T06:09:30.118Z,32.40
2019-01-20T06:10:07.003Z,33.15
2019-01-20T06:10:42.761Z,30.65
2019-01-20T06:11:18.602Z,32.88
2019-01-20T06:11:54.717Z,35.50
2019-01-20T06:12:30.490Z,28.77
2019-01-20T06:13:06.265Z,31.73
2019-01-20T06:13:41.987Z,31.48
2019-01-20T06:14:17.809Z,33.35
2019-01-20T06:14:53.829Z,30.85
2019-01-20T06:15:29.584Z,31.57
2019-01-20T06:16:05.610Z,31.42
2019-01-20T06:16:41.601Z,30.82
2019-01-20T06:17:17.394Z,30.75
2019-01-20T06:17:53.167Z,29.05
2019-01-20T06:18:28.941Z,30.92
2019-01-20T06:19:04.833Z,31.73
2019-01-20T06:19:40.826Z,29.95
2019-01-20T06:20:17.004Z,32.13
2019-01-20T06:20:53.023Z,29.48
2019-01-20T06:21:28.747Z,31.20
2019-01-20T06:22:04.749Z,29.25
2019-01-20T06:22:40.517Z,28.85
2019-01-20T06:23:16.334Z,28.85
2019-01-20T06:23:52.188Z,29.95
2019-01-20T06:24:28.522Z,29.30
2019-01-20T06:25:04.518Z,31.20
2019-01-20T06:25:40.342Z,28.70
2019-01-20T06:26:16.404Z,31.80
2019-01-20T06:26:52.188Z,30.00
2019-01-20T06:27:28.204Z,30.82
2019-01-20T06:28:04.036Z,34.08
2019-01-20T06:28:39.839Z,31.52
2019-01-20T06:29:15.600Z,29.32
2019-01-20T06:29:51.338Z,30.60
2019-01-20T06:30:36.519Z,30.48
2019-01-20T06:31:12.258Z,30.10
2019-01-20T06:31:49.033Z,30.32
2019-01-20T06:32:24.791Z,29.23
2019-01-20T06:33:00.553Z,29.15
2019-01-20T06:33:36.317Z,28.92
2019-01-20T06:34:12.050Z,28.83
2019-01-20T06:34:48.883Z,31.85
2019-01-20T06:35:24.685Z,28.92
2019-01-20T06:36:00.676Z,28.70
2019-01-20T06:36:36.736Z,32.48
2019-01-20T06:37:12.457Z,32.35
2019-01-20T06:37:48.205Z,29.72
2019-01-20T06:38:24.385Z,28.38
2019-01-20T06:39:00.183Z,32.08
2019-01-20T06:39:36.270Z,32.67
2019-01-20T06:40:12.554Z,30.37
2019-01-20T06:40:48.301Z,31.68
2019-01-20T06:41:24.099Z,32.60
2019-01-20T06:41:59.838Z,28.00
2019-01-20T06:42:35.912Z,28.30
2019-01-20T06:43:11.985Z,29.30
2019-01-20T06:43:47.800Z,28.73
2019-01-20T06:44:23.545Z,29.07
2019-01-20T06:44:59.330Z,29.35
2019-01-20T06:45:35.393Z,28.23
2019-01-20T06:46:11.172Z,27.98
2019-01-20T06:46:47.451Z,32.58
2019-01-20T06:47:23.262Z,31.27
2019-01-20T06:47:59.026Z,34.15
2019-01-20T06:48:34.867Z,35.00
2019-01-20T06:49:10.589Z,29.42
2019-01-20T06:49:46.593Z,30.72
2019-01-20T06:50:22.603Z,29.65
2019-01-20T06:50:58.628Z,28.85
2019-01-20T06:51:34.679Z,27.30
2019-01-20T06:52:10.412Z,31.52
2019-01-20T06:52:46.168Z,29.20
2019-01-20T06:53:21.936Z,30.08
2019-01-20T06:53:57.948Z,30.45
2019-01-20T06:54:33.663Z,31.02
2019-01-20T06:55:10.239Z,29.75
2019-01-20T06:55:45.993Z,29.55
2019-01-20T06:56:21.808Z,31.35
2019-01-20T06:56:57.536Z,33.65
2019-01-20T06:57:33.278Z,31.82
2019-01-20T06:58:09.262Z,29.80
2019-01-20T06:58:45.538Z,30.97
2019-01-20T06:59:21.857Z,31.35
2019-01-20T06:59:57.862Z,31.07
2019-01-20T07:00:33.603Z,30.75
2019-01-20T07:01:09.603Z,31.17
2019-01-20T07:01:45.954Z,34.00
2019-01-20T07:02:21.822Z,31.90
2019-01-20T07:02:57.820Z,31.40
2019-01-20T07:03:33.985Z,32.08
2019-01-20T07:04:09.750Z,31.50
2019-01-20T07:04:45.517Z,30.82
2019-01-20T07:05:21.371Z,30.97
2019-01-20T07:05:57.107Z,32.73
2019-01-20T07:06:32.848Z,30.48
2019-01-20T07:07:08.879Z,29.77
2019-01-20T07:07:45.070Z,30.30
2019-01-20T07:08:20.851Z,29.50
2019-01-20T07:08:57.211Z,30.57
2019-01-20T07:09:32.954Z,28.57
2019-01-20T07:10:09.940Z,27.02
2019-01-20T07:10:45.821Z,29.12
2019-01-20T07:11:21.604Z,32.28
2019-01-20T07:11:57.673Z,30.68
2019-01-20T07:12:33.411Z,27.80
2019-01-20T07:13:11.246Z,31.15
2019-01-20T07:13:47.246Z,29.95
2019-01-20T07:14:23.252Z,29.98
2019-01-20T07:14:59.064Z,28.02
2019-01-20T07:15:34.793Z,32.83
2019-01-20T07:16:10.809Z,30.45
2019-01-20T07:16:46.575Z,29.80
2019-01-20T07:17:22.499Z,29.20
2019-01-20T07:17:58.251Z,29.65
2019-01-20T07:18:34.042Z,28.52
2019-01-20T07:19:09.814Z,29.45
2019-01-20T07:19:45.545Z,29.00
2019-01-20T07:20:21.308Z,27.22
2019-01-20T07:20:57.623Z,30.90
2019-01-20T07:21:33.373Z,30.35
2019-01-20T07:22:09.141Z,29.77
2019-01-20T07:22:44.893Z,29.80
2019-01-20T07:23:20.715Z,30.90
2019-01-20T07:23:56.618Z,31.95
2019-01-20T07:24:32.354Z,30.45
2019-01-20T07:25:08.320Z,30.52
2019-01-20T07:25:44.057Z,30.52
2019-01-20T07:26:19.859Z,29.37
2019-01-20T07:26:55.804Z,29.87
2019-01-20T07:27:31.576Z,32.38
2019-01-20T07:28:07.312Z,28.23
2019-01-20T07:28:43.439Z,29.85
2019-01-20T07:29:19.348Z,28.23
2019-01-20T07:29:55.096Z,29.32
2019-01-20T07:30:30.846Z,30.52
2019-01-20T07:31:06.908Z,29.98
2019-01-20T07:31:42.938Z,29.37
2019-01-20T07:32:18.990Z,26.30
2019-01-20T07:32:54.754Z,27.05
2019-01-20T07:33:30.494Z,29.15
2019-01-20T07:34:06.354Z,29.32
2019-01-20T07:34:42.082Z,29.48
2019-01-20T07:35:18.167Z,30.23
2019-01-20T07:35:53.923Z,27.42
2019-01-20T07:36:29.899Z,29.72
2019-01-20T07:37:05.744Z,32.30
2019-01-20T07:37:41.790Z,30.55
2019-01-20T07:38:17.554Z,28.15
2019-01-20T07:38:53.418Z,29.10
2019-01-20T07:39:29.174Z,29.55
2019-01-20T07:40:06.240Z,27.95
2019-01-20T07:40:41.977Z,27.90
2019-01-20T07:41:17.729Z,31.17
2019-01-20T07:41:53.820Z,29.23
2019-01-20T07:42:29.742Z,29.52
2019-01-20T07:43:05.585Z,29.37
2019-01-20T07:43:41.570Z,28.00